Time;durP1;ratioP1;P1;durP2;ratioP2;P2;SDS_P1;SDS_P2;PMS_P1;PMS_P2;Temp;Humidity;BMP_temperature;BMP_pressure;BME280_temperature;BME280_humidity;BME280_pressure;Samples;Min_cycle;Max_cycle;Signal;HPM_P1;HPM_P2
2020/12/23 00:00:33;;;;;;;73.32;37.88;;;;;;;11.03;100.00;101283.59;10389674;28;20048;-75
2020/12/23 00:05:33;;;;;;;61.60;36.08;;;;;;;10.49;100.00;101196.59;10385679;28;20076;-74
2020/12/23 00:10:34;;;;;;;61.53;36.40;;;;;;;10.85;100.00;101256.91;10389236;28;20608;-75
2020/12/23 00:15:35;;;;;;;63.50;35.95;;;;;;;11.03;100.00;101261.94;10391430;28;20041;-75
2020/12/23 00:20:35;;;;;;;64.10;36.10;;;;;;;10.73;100.00;101205.63;10395661;28;20051;-75
2020/12/23 00:25:36;;;;;;;54.88;34.53;;;;;;;11.07;100.00;101219.53;10391634;28;20124;-74
2020/12/23 00:30:36;;;;;;;55.97;34.22;;;;;;;10.84;100.00;101197.75;10392367;28;20093;-75
2020/12/23 00:35:36;;;;;;;59.20;34.28;;;;;;;10.80;100.00;101205.81;10389350;28;20600;-74
2020/12/23 00:40:37;;;;;;;59.25;33.80;;;;;;;10.80;100.00;101205.81;10393992;28;20047;-75
2020/12/23 00:45:37;;;;;;;46.42;31.05;;;;;;;11.13;100.00;101237.06;10389322;28;20029;-75
2020/12/23 00:50:38;;;;;;;62.63;34.92;;;;;;;10.96;100.00;101230.91;10390795;28;20669;-74
2020/12/23 00:55:38;;;;;;;59.03;35.10;;;;;;;11.13;100.00;101245.19;10395209;28;20709;-75
2020/12/23 01:00:39;;;;;;;63.92;35.05;;;;;;;10.88;100.00;101210.22;10384339;28;20054;-75
2020/12/23 01:05:39;;;;;;;63.85;34.53;;;;;;;10.80;100.00;101189.56;10391618;28;20052;-75
2020/12/23 01:10:39;;;;;;;52.67;30.42;;;;;;;10.74;100.00;101163.94;10392776;28;20224;-74
2020/12/23 01:15:40;;;;;;;51.60;28.73;;;;;;;11.16;100.00;101217.41;10388472;28;20119;-74
2020/12/23 01:20:41;;;;;;;51.65;30.30;;;;;;;10.80;100.00;101162.53;10391566;28;20029;-75
2020/12/23 01:25:41;;;;;;;43.90;24.95;;;;;;;10.52;100.00;101109.38;10391398;28;20029;-75
2020/12/23 01:30:42;;;;;;;47.63;25.98;;;;;;;10.72;100.00;101145.38;10390853;28;20108;-75
2020/12/23 01:35:43;;;;;;;33.45;22.30;;;;;;;10.82;100.00;101168.38;10389138;28;20330;-75
2020/12/23 01:40:43;;;;;;;45.88;23.25;;;;;;;10.75;100.00;101160.88;10371703;28;20686;-75
2020/12/23 01:45:44;;;;;;;42.00;23.80;;;;;;;10.51;100.00;101123.25;10387478;28;20094;-75
2020/12/23 01:50:45;;;;;;;42.08;22.55;;;;;;;11.00;100.00;101209.31;10390924;28;20033;-75
2020/12/23 01:55:47;;;;;;;43.83;23.27;;;;;;;10.96;100.00;101193.03;10383955;28;20586;-75
2020/12/23 02:00:47;;;;;;;46.67;24.88;;;;;;;10.84;100.00;101147.19;10386886;28;20037;-76
2020/12/23 02:05:47;;;;;;;45.20;25.85;;;;;;;11.06;100.00;101163.88;10372570;28;20041;-76
2020/12/23 02:10:49;;;;;;;43.15;25.88;;;;;;;11.12;100.00;101189.50;10390344;28;20040;-76
2020/12/23 02:15:49;;;;;;;44.55;25.48;;;;;;;11.15;100.00;101183.38;10373944;28;20056;-73
2020/12/23 02:20:50;;;;;;;43.03;26.33;;;;;;;10.71;100.00;101099.75;10390372;28;20049;-76
2020/12/23 02:25:51;;;;;;;51.05;27.33;;;;;;;11.20;100.00;101158.75;10389567;28;20049;-75
2020/12/23 02:30:57;;;;;;;49.38;26.77;;;;;;;11.19;100.00;101146.34;10392798;28;20049;-75
2020/12/23 02:35:58;;;;;;;39.88;24.27;;;;;;;11.04;100.00;101120.16;10390754;28;20049;-75
2020/12/23 02:40:58;;;;;;;43.63;24.92;;;;;;;10.96;100.00;101079.44;10373906;28;20049;-75
2020/12/23 02:45:59;;;;;;;48.42;24.75;;;;;;;11.13;100.00;101115.31;10387891;28;20164;-75
2020/12/23 02:50:59;;;;;;;44.85;25.50;;;;;;;11.00;100.00;101080.25;10388229;28;20041;-75
2020/12/23 02:56:03;;;;;;;38.65;22.63;;;;;;;11.07;100.00;101068.03;10388466;28;20041;-75
2020/12/23 03:01:04;;;;;;;39.83;21.85;;;;;;;11.31;100.00;101089.41;10394586;28;20049;-74
2020/12/23 03:06:04;;;;;;;31.50;18.50;;;;;;;11.14;100.00;101041.13;10352505;28;20053;-75
2020/12/23 03:11:05;;;;;;;42.88;21.83;;;;;;;11.29;100.00;101059.19;10333676;28;20060;-74
2020/12/23 03:16:05;;;;;;;45.15;27.60;;;;;;;10.98;100.00;101039.28;10354969;28;20113;-76
2020/12/23 03:21:07;;;;;;;54.58;31.63;;;;;;;11.02;100.00;101016.91;10350577;28;20056;-75
2020/12/23 03:26:08;;;;;;;57.20;32.10;;;;;;;11.11;100.00;101041.84;10353682;28;20045;-75
2020/12/23 03:31:08;;;;;;;51.30;31.00;;;;;;;11.32;100.00;101036.03;10340134;28;20131;-76
2020/12/23 03:36:09;;;;;;;56.35;30.30;;;;;;;11.43;100.00;101043.22;10353030;28;20513;-75
2020/12/23 03:41:09;;;;;;;39.45;24.63;;;;;;;11.45;100.00;101017.69;10343691;28;20483;-76
2020/12/23 03:46:10;;;;;;;43.33;24.48;;;;;;;11.46;100.00;101024.69;10337902;28;20073;-75
2020/12/23 03:51:10;;;;;;;45.78;26.95;;;;;;;11.24;100.00;100975.59;10333030;28;20038;-76
2020/12/23 03:56:10;;;;;;;37.30;21.25;;;;;;;11.48;100.00;101008.88;10353809;28;20041;-75
2020/12/23 04:01:11;;;;;;;20.77;13.57;;;;;;;11.11;100.00;100953.34;10357556;28;20072;-76
2020/12/23 04:06:11;;;;;;;14.95;11.27;;;;;;;11.66;100.00;101034.28;10394740;28;20045;-75
2020/12/23 04:11:12;;;;;;;15.45;11.18;;;;;;;11.61;100.00;101021.06;10392786;28;20103;-76
2020/12/23 04:16:12;;;;;;;13.13;10.32;;;;;;;11.53;100.00;100992.31;10391679;28;20041;-76
2020/12/23 04:21:13;;;;;;;11.07;9.25;;;;;;;11.58;100.00;100994.72;10393961;28;20067;-75
2020/12/23 04:26:13;;;;;;;11.30;8.45;;;;;;;11.18;100.00;100945.34;10393849;28;20045;-76
2020/12/23 04:31:14;;;;;;;14.23;7.78;;;;;;;11.61;100.00;100994.00;10393774;28;20108;-76
2020/12/23 04:36:15;;;;;;;9.70;6.97;;;;;;;11.59;100.00;100985.44;10389792;28;20038;-76
2020/12/23 04:41:15;;;;;;;6.82;5.18;;;;;;;11.57;100.00;100982.31;10391065;28;20046;-76
2020/12/23 04:46:19;;;;;;;9.10;4.68;;;;;;;11.79;100.00;101005.91;10393135;28;20548;-74
2020/12/23 04:51:21;;;;;;;5.38;4.40;;;;;;;11.81;100.00;100998.19;10374177;28;20048;-74
2020/12/23 04:56:21;;;;;;;5.13;3.33;;;;;;;11.51;100.00;100948.59;10390883;28;20108;-74
2020/12/23 05:01:22;;;;;;;4.90;3.30;;;;;;;11.81;100.00;100976.53;10385586;28;20214;-73
2020/12/23 05:06:23;;;;;;;6.95;3.60;;;;;;;11.71;100.00;100960.91;10390693;28;20037;-75
2020/12/23 05:11:24;;;;;;;4.82;2.78;;;;;;;11.66;100.00;100974.72;10372467;28;20041;-75
2020/12/23 05:16:24;;;;;;;4.32;1.92;;;;;;;11.56;100.00;100937.44;10391015;28;20056;-75
2020/12/23 05:21:26;;;;;;;3.53;1.95;;;;;;;11.67;100.00;100954.66;10389201;28;20622;-75
2020/12/23 05:26:26;;;;;;;4.03;2.03;;;;;;;11.97;100.00;101000.78;10394504;28;20038;-75
2020/12/23 05:31:32;;;;;;;5.50;1.80;;;;;;;11.64;100.00;100945.31;10392432;28;20056;-75
2020/12/23 05:36:35;;;;;;;5.93;1.65;;;;;;;11.88;100.00;100985.94;10392114;28;20123;-74
2020/12/23 05:41:37;;;;;;;5.50;1.80;;;;;;;11.92;100.00;100986.75;10390573;28;20049;-74
2020/12/23 05:46:38;;;;;;;4.23;1.87;;;;;;;11.78;100.00;100966.44;10381467;28;20045;-74
2020/12/23 05:51:39;;;;;;;3.67;1.60;;;;;;;11.96;100.00;101009.28;10387401;28;20276;-74
2020/12/23 05:56:41;;;;;;;6.47;2.10;;;;;;;11.88;100.00;100991.38;10393480;28;20045;-74
2020/12/23 06:01:44;;;;;;;3.37;1.80;;;;;;;11.80;100.00;100972.25;10352005;28;20625;-75
2020/12/23 06:06:45;;;;;;;4.13;2.15;;;;;;;11.80;100.00;100969.53;10388516;28;20064;-75
2020/12/23 06:11:54;;;;;;;4.65;2.13;;;;;;;11.80;100.00;100991.19;10388993;28;20080;-76
2020/12/23 06:16:57;;;;;;;4.65;2.10;;;;;;;11.84;100.00;101007.50;10387785;28;20041;-76
2020/12/23 06:21:58;;;;;;;3.88;2.08;;;;;;;11.42;100.00;100955.00;10387367;28;20088;-74
2020/12/23 06:27:01;;;;;;;7.47;2.15;;;;;;;11.59;100.00;100971.91;10387138;28;20045;-76
2020/12/23 06:32:17;;;;;;;5.78;2.47;;;;;;;11.63;100.00;100987.06;10353596;28;20115;-76
2020/12/23 06:37:23;;;;;;;7.03;2.92;;;;;;;11.60;100.00;100987.78;10383946;28;20045;-75
2020/12/23 06:42:28;;;;;;;7.75;3.33;;;;;;;11.22;100.00;100923.75;10388480;28;20501;-75
2020/12/23 06:47:31;;;;;;;6.45;3.05;;;;;;;11.55;100.00;100973.78;10387415;28;20063;-76
2020/12/23 06:52:32;;;;;;;;;;;;;;;11.61;100.00;100977.75;10380819;28;20482;-76
2020/12/23 06:57:35;;;;;;;7.68;3.10;;;;;;;11.55;100.00;100968.38;10386314;28;19917;-76
2020/12/23 07:02:39;;;;;;;8.98;3.03;;;;;;;11.55;100.00;100979.22;10383110;28;20053;-76
2020/12/23 07:07:43;;;;;;;5.97;2.90;;;;;;;11.18;100.00;100922.91;10377364;28;20033;-76
2020/12/23 07:12:48;;;;;;;3.08;2.10;;;;;;;11.50;100.00;100955.94;10382135;28;20486;-76
2020/12/23 07:17:54;;;;;;;2.80;1.50;;;;;;;11.14;100.00;100911.25;10386943;28;20441;-76
2020/12/23 07:22:54;;;;;;;4.13;1.27;;;;;;;11.38;100.00;100951.50;10391039;28;20045;-76
2020/12/23 07:27:57;;;;;;;1.30;1.08;;;;;;;11.47;100.00;100966.69;10391255;28;20509;-76
2020/12/23 07:33:01;;;;;;;;;;;;;;;11.45;100.00;100963.56;10385564;28;20115;-76
2020/12/23 07:38:04;;;;;;;2.72;1.20;;;;;;;11.23;100.00;100914.50;10385209;28;19959;-76
2020/12/23 07:43:05;;;;;;;2.40;1.40;;;;;;;11.34;100.00;100942.53;10390797;28;20045;-77
2020/12/23 07:48:07;;;;;;;1.40;1.30;;;;;;;11.09;100.00;100903.44;10393548;28;20120;-77
2020/12/23 07:53:10;;;;;;;4.03;1.48;;;;;;;11.15;100.00;100912.81;10395237;28;20156;-76
2020/12/23 07:58:14;;;;;;;2.60;1.40;;;;;;;11.16;100.00;100909.75;10391272;28;20041;-79
2020/12/23 08:03:14;;;;;;;3.83;1.60;;;;;;;11.32;100.00;100931.28;10395395;28;20072;-76
2020/12/23 08:08:24;;;;;;;2.97;1.55;;;;;;;11.41;100.00;100948.03;10395991;28;20111;-78
2020/12/23 08:13:26;;;;;;;1.80;1.48;;;;;;;11.53;100.00;100959.84;10399431;28;20604;-80
2020/12/23 08:18:27;;;;;;;2.50;1.50;;;;;;;11.13;100.00;100898.88;10398393;28;20104;-79
2020/12/23 08:23:27;;;;;;;1.50;1.10;;;;;;;11.51;100.00;100945.88;10365534;28;20068;-79
2020/12/23 08:28:28;;;;;;;3.08;1.10;;;;;;;11.65;100.00;100940.69;10387354;28;20037;-78
2020/12/23 08:33:30;;;;;;;5.28;1.20;;;;;;;11.58;100.00;100918.91;10360334;28;20409;-80
2020/12/23 08:38:30;;;;;;;3.63;1.98;;;;;;;11.20;100.00;100861.09;10408678;28;20033;-76
2020/12/23 08:43:31;;;;;;;3.30;0.80;;;;;;;11.32;100.00;100877.16;10385297;28;20042;-78
2020/12/23 08:48:32;;;;;;;4.35;0.85;;;;;;;11.41;100.00;100893.91;10392554;28;20052;-79
2020/12/23 08:53:37;;;;;;;1.25;0.85;;;;;;;11.38;100.00;100889.22;10396969;28;20759;-78
2020/12/23 08:58:39;;;;;;;2.08;0.93;;;;;;;11.31;100.00;100867.47;10387359;28;20053;-77
2020/12/23 09:03:39;;;;;;;2.97;1.67;;;;;;;11.41;100.00;100877.66;10388021;28;20050;-82
2020/12/23 09:08:40;;;;;;;5.63;2.25;;;;;;;11.58;100.00;100881.00;10395017;28;20063;-81
2020/12/23 09:13:40;;;;;;;6.65;3.45;;;;;;;11.60;100.00;100859.78;10386869;28;20509;-77
2020/12/23 09:18:49;;;;;;;12.52;9.25;;;;;;;11.60;100.00;100851.66;10391261;28;20073;-78
2020/12/23 09:23:49;;;;;;;15.02;10.93;;;;;;;11.48;100.00;100822.09;10377231;28;20049;-80
2020/12/23 09:28:53;;;;;;;15.07;10.20;;;;;;;11.72;100.00;100854.13;10389152;28;20353;-81
2020/12/23 09:33:53;;;;;;;11.95;8.63;;;;;;;11.90;100.00;100832.75;10385995;28;20076;-80
2020/12/23 09:38:53;;;;;;;10.73;8.13;;;;;;;11.87;100.00;100832.66;10393771;28;20557;-79
2020/12/23 09:43:54;;;;;;;11.32;7.70;;;;;;;11.96;100.00;100841.31;10376472;28;20044;-80
2020/12/23 09:48:54;;;;;;;12.20;7.70;;;;;;;11.58;100.00;100772.72;10387172;28;20052;-79
2020/12/23 09:53:55;;;;;;;7.88;6.70;;;;;;;11.29;100.00;100745.28;10376740;28;20048;-80
2020/12/23 09:59:03;;;;;;;8.57;6.18;;;;;;;11.84;100.00;100823.34;10355207;28;20045;-80
2020/12/23 10:04:03;;;;;;;10.80;6.25;;;;;;;11.86;100.00;100831.88;10385781;28;20482;-79
2020/12/23 10:09:05;;;;;;;6.10;5.47;;;;;;;11.92;100.00;100818.81;10378580;28;20155;-80
2020/12/23 10:14:06;;;;;;;10.15;5.93;;;;;;;11.82;100.00;100801.25;10369821;28;20056;-78
2020/12/23 10:19:06;;;;;;;6.05;5.25;;;;;;;11.84;100.00;100807.84;10392925;28;20053;-79
2020/12/23 10:24:06;;;;;;;6.15;5.13;;;;;;;11.80;100.00;100773.75;10394720;28;20037;-78
2020/12/23 10:29:08;;;;;;;7.63;4.90;;;;;;;11.53;100.00;100716.97;10390068;28;20045;-79
2020/12/23 10:34:09;;;;;;;6.47;4.13;;;;;;;11.84;100.00;100769.94;10386151;28;20049;-79
2020/12/23 10:39:09;;;;;;;5.03;3.40;;;;;;;11.76;100.00;100735.81;10384922;28;20049;-79
2020/12/23 10:44:10;;;;;;;4.97;2.72;;;;;;;11.66;100.00;100712.06;10366974;28;20045;-78
2020/12/23 10:49:11;;;;;;;4.35;1.75;;;;;;;11.94;100.00;100732.53;10378216;28;20139;-80
2020/12/23 10:54:13;;;;;;;2.58;1.30;;;;;;;11.89;100.00;100711.22;10382301;28;20056;-78
2020/12/23 10:59:16;;;;;;;2.55;1.58;;;;;;;11.50;100.00;100614.06;10350225;28;20057;-78
2020/12/23 11:04:17;;;;;;;3.85;1.70;;;;;;;11.70;100.00;100607.31;10366962;28;20504;-78
2020/12/23 11:09:18;;;;;;;5.70;1.73;;;;;;;11.60;100.00;100589.03;10383758;28;20037;-76
2020/12/23 11:14:29;;;;;;;2.33;1.65;;;;;;;11.60;100.00;100591.75;10390866;28;20053;-78
2020/12/23 11:19:40;;;;;;;2.67;1.80;;;;;;;11.62;100.00;100611.09;10389225;28;20394;-77
2020/12/23 11:24:40;;;;;;;2.25;1.50;;;;;;;11.76;100.00;100730.41;10399567;28;20060;-78
2020/12/23 11:29:41;;;;;;;3.72;2.60;;;;;;;11.52;100.00;100682.13;10399531;28;20049;-77
2020/12/23 11:34:41;;;;;;;4.13;2.20;;;;;;;11.72;100.00;100745.81;10397594;28;20402;-78
2020/12/23 11:39:42;;;;;;;4.68;2.28;;;;;;;11.52;100.00;100741.69;10398814;28;20383;-77
2020/12/23 11:44:42;;;;;;;7.35;2.40;;;;;;;11.47;100.00;100733.91;10390324;28;20133;-77
2020/12/23 11:49:42;;;;;;;4.35;1.90;;;;;;;11.42;100.00;100719.53;10388150;28;20136;-77
2020/12/23 11:54:43;;;;;;;6.03;1.90;;;;;;;11.39;100.00;100687.78;10391124;28;20095;-78
2020/12/23 11:59:43;;;;;;;2.67;1.50;;;;;;;11.23;100.00;100654.75;10393367;28;20379;-79
2020/12/23 12:04:44;;;;;;;2.90;1.30;;;;;;;11.37;100.00;100649.50;10390345;28;20552;-77
2020/12/23 12:09:44;;;;;;;3.17;1.20;;;;;;;11.37;100.00;100649.50;10393452;28;20433;-79
2020/12/23 12:14:45;;;;;;;2.63;1.42;;;;;;;11.43;100.00;100639.91;10372367;28;20535;-81
2020/12/23 12:19:45;;;;;;;3.45;1.40;;;;;;;11.23;100.00;100589.78;10384932;28;20069;-79
2020/12/23 12:24:46;;;;;;;3.83;1.60;;;;;;;11.62;100.00;100632.75;10407557;28;20044;-80
2020/12/23 12:29:47;;;;;;;1.90;1.20;;;;;;;11.63;100.00;100596.41;10369966;28;20064;-81
2020/12/23 12:34:47;;;;;;;3.35;1.13;;;;;;;11.87;100.00;100638.44;10382223;28;20171;-79
2020/12/23 12:39:48;;;;;;;2.50;1.33;;;;;;;11.72;100.00;100577.94;10385108;28;20111;-78
2020/12/23 12:44:51;;;;;;;1.80;0.95;;;;;;;11.60;100.00;100553.84;10402596;28;20049;-76
2020/12/23 12:49:51;;;;;;;1.52;1.20;;;;;;;11.66;100.00;100549.63;10384669;28;20359;-77
2020/12/23 12:54:51;;;;;;;4.32;1.42;;;;;;;11.76;100.00;100562.50;10374949;28;20122;-81
2020/12/23 12:59:52;;;;;;;3.03;1.67;;;;;;;12.08;100.00;100602.63;10383327;28;20502;-78
2020/12/23 13:04:55;;;;;;;2.92;1.95;;;;;;;12.06;100.00;100594.09;10388517;28;20456;-82
2020/12/23 13:09:55;;;;;;;3.45;2.25;;;;;;;12.17;100.00;100597.69;10350483;28;20499;-76
2020/12/23 13:14:56;;;;;;;5.28;1.83;;;;;;;12.15;100.00;100572.88;10381391;28;20058;-78
2020/12/23 13:19:58;;;;;;;4.15;1.92;;;;;;;11.63;100.00;100505.13;10382296;28;20126;-80
2020/12/23 13:24:59;;;;;;;3.65;2.05;;;;;;;12.24;100.00;100569.88;10381408;28;20071;-79
2020/12/23 13:30:00;;;;;;;2.60;1.98;;;;;;;12.15;100.00;100545.78;10381347;28;20079;-79
2020/12/23 13:35:01;;;;;;;3.47;2.28;;;;;;;12.26;100.00;100524.97;10378519;28;20056;-79
2020/12/23 13:40:02;;;;;;;3.22;2.00;;;;;;;12.44;100.00;100497.16;10399327;28;20081;-80
2020/12/23 13:45:04;;;;;;;5.10;2.35;;;;;;;12.37;100.00;100480.88;10366928;28;20050;-79
2020/12/23 13:50:06;;;;;;;3.35;2.22;;;;;;;12.12;100.00;100438.19;10361899;28;20060;-79
2020/12/23 13:55:06;;;;;;;3.27;2.50;;;;;;;12.45;100.00;100487.91;10387069;28;20041;-81
2020/12/23 14:00:07;;;;;;;6.15;2.22;;;;;;;11.95;100.00;100450.47;10388930;28;20037;-80
2020/12/23 14:05:08;;;;;;;2.10;1.70;;;;;;;11.90;100.00;100441.91;10390388;28;20092;-82
2020/12/23 14:10:08;;;;;;;2.03;1.50;;;;;;;12.31;100.00;100520.34;10381655;28;20486;-80
2020/12/23 14:15:09;;;;;;;4.03;1.60;;;;;;;12.35;100.00;100526.56;10372917;28;20406;-79
2020/12/23 14:20:09;;;;;;;2.45;1.40;;;;;;;11.80;100.00;100444.13;10384422;28;20095;-78
2020/12/23 14:25:10;;;;;;;2.65;1.38;;;;;;;12.23;100.00;100487.78;10384653;28;20393;-77
2020/12/23 14:30:10;;;;;;;4.63;2.10;;;;;;;12.19;100.00;100492.41;10382430;28;20509;-76
2020/12/23 14:35:11;;;;;;;3.50;1.83;;;;;;;12.30;100.00;100511.44;10375077;28;20056;-78
2020/12/23 14:40:11;;;;;;;3.58;2.03;;;;;;;11.82;100.00;100447.25;10386704;28;20052;-79
2020/12/23 14:45:12;;;;;;;4.07;1.95;;;;;;;12.26;100.00;100487.03;10389612;28;20048;-83
2020/12/23 14:50:12;;;;;;;6.70;2.67;;;;;;;12.30;100.00;100491.69;10385838;28;20075;-77
2020/12/23 14:55:13;;;;;;;6.57;2.53;;;;;;;12.32;100.00;100473.09;10382845;28;20033;-78
2020/12/23 15:00:14;;;;;;;6.78;2.40;;;;;;;11.91;100.00;100410.97;10378207;28;20050;-79
2020/12/23 15:05:14;;;;;;;2.88;1.73;;;;;;;11.97;100.00;100401.31;10390353;28;20057;-80
2020/12/23 15:10:15;;;;;;;2.85;1.60;;;;;;;12.17;100.00;100435.09;10379387;28;20049;-82
2020/12/23 15:15:15;;;;;;;3.85;1.73;;;;;;;12.18;100.00;100439.38;10377532;28;20115;-80
2020/12/23 15:20:16;;;;;;;6.72;3.25;;;;;;;11.90;100.00;100387.72;10383770;28;20045;-83
2020/12/23 15:25:16;;;;;;;2.97;2.10;;;;;;;12.01;100.00;100404.81;10374021;28;20764;-81
2020/12/23 15:30:17;;;;;;;4.85;1.85;;;;;;;12.10;100.00;100424.22;10382838;28;20696;-82
2020/12/23 15:35:17;;;;;;;3.20;1.98;;;;;;;11.96;100.00;100407.91;10381408;28;20115;-81
2020/12/23 15:40:18;;;;;;;2.53;1.70;;;;;;;11.96;100.00;100408.66;10377887;28;20994;-80
2020/12/23 15:45:18;;;;;;;3.50;1.90;;;;;;;12.15;100.00;100426.56;10375585;28;20096;-79
2020/12/23 15:50:19;;;;;;;3.45;2.15;;;;;;;12.04;100.00;100420.31;10380757;28;20029;-81
2020/12/23 15:55:20;;;;;;;6.22;3.33;;;;;;;11.83;100.00;100394.66;10373921;28;20045;-80
2020/12/23 16:00:21;;;;;;;3.45;2.53;;;;;;;12.11;100.00;100431.22;10352762;28;20681;-81
2020/12/23 16:05:21;;;;;;;4.75;2.63;;;;;;;11.98;100.00;100411.78;10359722;28;20060;-77
2020/12/23 16:10:22;;;;;;;4.97;2.90;;;;;;;11.87;100.00;100388.47;10385630;28;20051;-78
2020/12/23 16:15:23;;;;;;;5.85;3.22;;;;;;;12.14;100.00;100430.44;10385251;28;20037;-79
2020/12/23 16:20:24;;;;;;;3.53;2.92;;;;;;;11.83;100.00;100389.25;10358269;28;20038;-78
2020/12/23 16:25:24;;;;;;;3.90;3.00;;;;;;;11.68;100.00;100376.75;10390826;28;20053;-78
2020/12/23 16:30:25;;;;;;;5.50;3.40;;;;;;;12.04;100.00;100425.72;10388840;28;20045;-75
2020/12/23 16:35:25;;;;;;;6.97;3.60;;;;;;;12.03;100.00;100419.53;10385360;28;20049;-81
2020/12/23 16:40:25;;;;;;;6.25;3.35;;;;;;;11.97;100.00;100404.03;10382374;28;20056;-79
2020/12/23 16:45:27;;;;;;;7.43;3.95;;;;;;;12.07;100.00;100433.13;10387860;28;20037;-78
2020/12/23 16:50:27;;;;;;;6.50;3.97;;;;;;;12.00;100.00;100419.53;10378608;28;20544;-77
2020/12/23 16:55:28;;;;;;;4.40;2.80;;;;;;;12.17;100.00;100440.53;10368406;28;20077;-81
2020/12/23 17:00:28;;;;;;;7.28;3.10;;;;;;;12.12;100.00;100437.41;10387169;28;20044;-80
2020/12/23 17:05:29;;;;;;;3.95;2.60;;;;;;;11.76;100.00;100375.66;10381125;28;20049;-79
2020/12/23 17:10:29;;;;;;;6.68;2.63;;;;;;;12.17;99.74;100440.53;10390133;28;20037;-78
2020/12/23 17:15:30;;;;;;;3.53;2.38;;;;;;;12.09;99.44;100421.88;10387409;28;20095;-78
2020/12/23 17:20:30;;;;;;;5.78;2.70;;;;;;;12.09;98.72;100436.22;10385234;28;20045;-81
2020/12/23 17:25:32;;;;;;;4.65;3.13;;;;;;;11.66;98.77;100384.47;10385907;28;20041;-77
2020/12/23 17:30:33;;;;;;;5.45;2.65;;;;;;;12.03;98.78;100437.75;10382784;28;20060;-77
2020/12/23 17:35:33;;;;;;;9.20;4.22;;;;;;;11.88;98.86;100411.75;10380362;28;20049;-77
2020/12/23 17:40:34;;;;;;;5.18;3.30;;;;;;;11.79;98.41;100399.25;10385121;28;20041;-76
2020/12/23 17:45:35;;;;;;;7.00;4.40;;;;;;;11.89;97.98;100402.44;10383049;28;20041;-78
2020/12/23 17:50:36;;;;;;;5.45;3.20;;;;;;;11.87;98.61;100391.19;10382107;28;20038;-76
2020/12/23 17:55:36;;;;;;;6.32;3.22;;;;;;;11.71;98.88;100353.56;10382938;28;20090;-76
2020/12/23 18:00:37;;;;;;;6.43;4.18;;;;;;;11.99;98.57;100407.13;10381925;28;20042;-78
2020/12/23 18:05:37;;;;;;;5.70;3.58;;;;;;;11.84;98.02;100373.75;10382679;28;20049;-79
2020/12/23 18:10:38;;;;;;;7.53;3.78;;;;;;;11.64;98.25;100348.88;10379349;28;20026;-77
2020/12/23 18:15:38;;;;;;;5.78;3.17;;;;;;;12.05;97.82;100419.19;10382912;28;20037;-78
2020/12/23 18:20:39;;;;;;;6.38;3.40;;;;;;;11.64;98.60;100359.69;10384341;28;20053;-78
2020/12/23 18:25:41;;;;;;;6.45;3.08;;;;;;;12.00;97.19;100435.78;10376096;28;20049;-77
2020/12/23 18:30:41;;;;;;;6.85;2.95;;;;;;;11.63;95.88;100369.00;10385111;28;20589;-75
2020/12/23 18:35:42;;;;;;;7.85;2.60;;;;;;;11.65;94.90;100388.34;10375846;28;20037;-77
2020/12/23 18:40:42;;;;;;;7.60;3.25;;;;;;;11.98;94.12;100454.34;10369212;28;20069;-75
2020/12/23 18:45:45;;;;;;;6.63;1.38;;;;;;;11.50;90.12;100440.81;10370850;28;20041;-79
2020/12/23 18:50:46;;;;;;;7.60;1.40;;;;;;;11.35;86.54;100473.19;10371081;28;20033;-80
2020/12/23 18:55:46;;;;;;;5.68;1.52;;;;;;;11.16;88.26;100497.75;10367011;28;20516;-81
2020/12/23 19:00:47;;;;;;;12.55;2.13;;;;;;;11.03;92.17;100491.03;10370698;28;20044;-79
2020/12/23 19:05:47;;;;;;;11.80;1.90;;;;;;;10.75;95.75;100484.16;10367663;28;20046;-77
2020/12/23 19:10:48;;;;;;;8.85;2.10;;;;;;;10.63;97.23;100489.78;10372466;28;20030;-78
2020/12/23 19:15:48;;;;;;;12.45;2.00;;;;;;;10.37;97.38;100464.38;10348519;28;20419;-79
2020/12/23 19:20:49;;;;;;;6.35;1.50;;;;;;;10.64;96.25;100488.66;10371803;28;20153;-76
2020/12/23 19:25:49;;;;;;;13.48;3.10;;;;;;;10.74;96.14;100496.13;10374694;28;20049;-77
2020/12/23 19:30:50;;;;;;;8.82;2.47;;;;;;;10.65;95.12;100482.09;10371130;28;20157;-78
2020/12/23 19:35:50;;;;;;;12.38;1.73;;;;;;;10.76;95.51;100485.72;10372259;28;20045;-77
2020/12/23 19:40:51;;;;;;;12.32;2.25;;;;;;;10.71;95.86;100467.13;10379609;28;20061;-79
2020/12/23 19:45:51;;;;;;;9.25;2.70;;;;;;;10.89;96.95;100495.16;10385497;28;20045;-77
2020/12/23 19:50:52;;;;;;;9.77;2.72;;;;;;;10.43;96.56;100430.50;10363851;28;20124;-77
2020/12/23 19:55:52;;;;;;;10.48;3.05;;;;;;;10.75;97.56;100478.75;10383922;28;20715;-76
2020/12/23 20:00:53;;;;;;;13.15;4.60;;;;;;;10.47;96.94;100458.34;10381821;28;20080;-74
2020/12/23 20:05:53;;;;;;;16.50;3.75;;;;;;;10.57;94.07;100484.72;10380844;28;20057;-76
2020/12/23 20:10:53;;;;;;;8.50;2.88;;;;;;;10.53;92.44;100472.31;10386606;28;20045;-80
2020/12/23 20:15:54;;;;;;;10.18;2.38;;;;;;;10.71;91.97;100510.38;10386155;28;20056;-77
2020/12/23 20:20:55;;;;;;;11.65;2.03;;;;;;;9.97;91.58;100484.66;10386606;28;20049;-77
2020/12/23 20:25:55;;;;;;;15.30;1.80;;;;;;;10.07;93.45;100505.63;10384750;28;20046;-77
2020/12/23 20:30:56;;;;;;;7.97;1.60;;;;;;;9.87;94.92;100518.44;10389692;28;20045;-77
2020/12/23 20:35:56;;;;;;;11.70;1.70;;;;;;;9.51;94.49;100457.72;10385950;28;20049;-76
2020/12/23 20:40:57;;;;;;;6.13;2.00;;;;;;;9.64;92.98;100504.97;10387698;28;20060;-76
2020/12/23 20:45:57;;;;;;;7.60;1.42;;;;;;;9.48;91.53;100486.19;10387758;28;20037;-77
2020/12/23 20:50:58;;;;;;;8.45;1.20;;;;;;;9.17;91.80;100462.94;10364154;28;20046;-77
2020/12/23 20:55:58;;;;;;;4.03;1.08;;;;;;;8.99;91.27;100437.56;10388972;28;20057;-77
2020/12/23 21:00:58;;;;;;;5.30;1.20;;;;;;;9.29;90.98;100484.34;10385009;28;20089;-76
2020/12/23 21:05:59;;;;;;;10.90;2.15;;;;;;;9.46;90.52;100485.00;10342869;28;20051;-76
2020/12/23 21:10:59;;;;;;;9.85;1.80;;;;;;;9.43;88.31;100504.59;10368290;28;20088;-76
2020/12/23 21:16:00;;;;;;;7.28;1.63;;;;;;;9.56;87.89;100514.06;10369297;28;20037;-77
2020/12/23 21:21:00;;;;;;;9.05;2.33;;;;;;;9.19;88.28;100457.94;10387426;28;20064;-76
2020/12/23 21:26:01;;;;;;;10.82;1.38;;;;;;;9.31;89.35;100498.25;10388320;28;20046;-75
2020/12/23 21:31:02;;;;;;;3.85;1.33;;;;;;;9.37;89.65;100519.53;10385986;28;20072;-77
2020/12/23 21:36:06;;;;;;;6.68;2.45;;;;;;;9.03;91.14;100486.94;10382196;28;20038;-76
2020/12/23 21:41:06;;;;;;;10.38;2.55;;;;;;;9.00;92.68;100487.66;10383561;28;20041;-76
2020/12/23 21:46:07;;;;;;;12.55;2.78;;;;;;;9.27;93.06;100534.38;10364124;28;20053;-76
2020/12/23 21:51:07;;;;;;;8.73;2.50;;;;;;;9.28;93.79;100530.53;10380024;28;20052;-79
2020/12/23 21:56:09;;;;;;;10.10;2.33;;;;;;;8.78;95.01;100452.19;10382881;28;20084;-79
2020/12/23 22:01:09;;;;;;;11.50;2.22;;;;;;;9.44;94.93;100543.94;10382809;28;20383;-79
2020/12/23 22:06:10;;;;;;;11.35;2.33;;;;;;;9.13;94.22;100491.75;10383781;28;20061;-77
2020/12/23 22:11:18;;;;;;;10.75;2.55;;;;;;;8.98;94.39;100495.31;10382619;28;20065;-78
2020/12/23 22:16:20;;;;;;;8.07;2.20;;;;;;;8.92;92.58;100492.13;10378074;28;20045;-79
2020/12/23 22:21:21;;;;;;;12.50;2.65;;;;;;;9.31;91.14;100536.00;10382103;28;20394;-76
2020/12/23 22:26:21;;;;;;;6.72;3.22;;;;;;;9.45;89.73;100540.09;10382487;28;20045;-77
2020/12/23 22:31:26;;;;;;;8.00;2.65;;;;;;;8.88;87.88;100459.69;10382677;28;20046;-76
2020/12/23 22:36:26;;;;;;;8.02;2.30;;;;;;;9.18;85.93;100504.94;10383501;28;20037;-76
2020/12/23 22:41:27;;;;;;;17.38;3.83;;;;;;;9.46;87.34;100544.38;10379617;28;20033;-76
2020/12/23 22:46:27;;;;;;;10.45;2.92;;;;;;;9.30;88.04;100539.84;10381182;28;20049;-77